Terminal Aerodrome Forecast
Issued by NWS

Home | Current Version | Previous Version | Graphics & Text | Print | Product List | Glossary On
Versions: 1 2 3 4 5 6 7 8 9 10 11 12 13 14 15 16 17 18 19 20 21 22 23 24
000
FTUS43 KGRB 301828 AAA
TAFRHI
TAF AMD
KRHI 301828Z 3018/0118 35008G14KT P6SM SCT015 BKN025
     FM302100 36011KT P6SM SCT040
     FM010200 VRB03KT P6SM SKC
      TEMPO 0106/0109 BKN025
     FM010900 VRB03KT P6SM SCT010 BKN025
      TEMPO 0112/0114 5SM BR BKN010
     FM011500 01006KT P6SM SCT025=

USA.gov is the U.S. government's official web portal to all federal, state and local government web resources and services.